sensor_id;sensor_type;location;lat;lon;timestamp;pressure;altitude;pressure_sealevel;temperature;humidity
47726;BME280;33483;48.294;16.388;2023-11-19T00:00:12;100122.03;;;1.61;100.00
47726;BME280;33483;48.294;16.388;2023-11-19T00:03:00;100130.72;;;1.68;100.00
47726;BME280;33483;48.294;16.388;2023-11-19T00:05:28;100131.16;;;1.67;100.00
47726;BME280;33483;48.294;16.388;2023-11-19T00:07:56;100130.41;;;1.66;100.00
47726;BME280;33483;48.294;16.388;2023-11-19T00:10:23;100115.09;;;1.69;100.00
47726;BME280;33483;48.294;16.388;2023-11-19T00:12:50;100117.81;;;1.69;100.00
47726;BME280;33483;48.294;16.388;2023-11-19T00:15:18;100114.63;;;1.70;100.00
47726;BME280;33483;48.294;16.388;2023-11-19T00:17:46;100106.75;;;1.72;100.00
47726;BME280;33483;48.294;16.388;2023-11-19T00:20:16;100108.25;;;1.73;100.00
47726;BME280;33483;48.294;16.388;2023-11-19T00:22:43;100116.75;;;1.75;100.00
47726;BME280;33483;48.294;16.388;2023-11-19T00:25:14;100111.28;;;1.75;100.00
47726;BME280;33483;48.294;16.388;2023-11-19T00:27:41;100106.00;;;1.81;100.00
47726;BME280;33483;48.294;16.388;2023-11-19T00:30:12;100104.03;;;1.81;100.00
47726;BME280;33483;48.294;16.388;2023-11-19T00:32:40;100106.28;;;1.74;100.00
47726;BME280;33483;48.294;16.388;2023-11-19T00:35:08;100122.22;;;1.75;100.00
47726;BME280;33483;48.294;16.388;2023-11-19T00:37:37;100113.41;;;1.71;100.00
47726;BME280;33483;48.294;16.388;2023-11-19T00:40:04;100104.31;;;1.74;100.00
47726;BME280;33483;48.294;16.388;2023-11-19T00:42:32;100102.31;;;1.66;100.00
47726;BME280;33483;48.294;16.388;2023-11-19T00:45:00;100095.50;;;1.61;100.00
47726;BME280;33483;48.294;16.388;2023-11-19T00:47:28;100094.28;;;1.53;100.00
47726;BME280;33483;48.294;16.388;2023-11-19T00:49:55;100097.59;;;1.57;100.00
47726;BME280;33483;48.294;16.388;2023-11-19T00:52:22;100114.91;;;1.54;100.00
47726;BME280;33483;48.294;16.388;2023-11-19T00:54:50;100110.94;;;1.55;100.00
47726;BME280;33483;48.294;16.388;2023-11-19T00:57:17;100100.03;;;1.46;100.00
47726;BME280;33483;48.294;16.388;2023-11-19T00:59:44;100095.47;;;1.52;100.00
47726;BME280;33483;48.294;16.388;2023-11-19T01:02:11;100091.81;;;1.55;100.00
47726;BME280;33483;48.294;16.388;2023-11-19T01:04:38;100085.13;;;1.47;100.00
47726;BME280;33483;48.294;16.388;2023-11-19T01:07:06;100086.06;;;1.53;100.00
47726;BME280;33483;48.294;16.388;2023-11-19T01:09:33;100086.69;;;1.48;100.00
47726;BME280;33483;48.294;16.388;2023-11-19T01:12:02;100089.69;;;1.50;100.00
47726;BME280;33483;48.294;16.388;2023-11-19T01:14:30;100083.03;;;1.51;100.00
47726;BME280;33483;48.294;16.388;2023-11-19T01:16:57;100069.38;;;1.51;100.00
47726;BME280;33483;48.294;16.388;2023-11-19T01:19:25;100063.31;;;1.56;100.00
47726;BME280;33483;48.294;16.388;2023-11-19T01:21:52;100057.88;;;1.65;100.00
47726;BME280;33483;48.294;16.388;2023-11-19T01:24:19;100055.13;;;1.65;100.00
47726;BME280;33483;48.294;16.388;2023-11-19T01:26:46;100041.47;;;1.74;100.00
47726;BME280;33483;48.294;16.388;2023-11-19T01:29:14;100046.78;;;1.78;100.00
47726;BME280;33483;48.294;16.388;2023-11-19T01:31:41;100053.75;;;1.79;100.00
47726;BME280;33483;48.294;16.388;2023-11-19T01:34:09;100051.81;;;1.79;100.00
47726;BME280;33483;48.294;16.388;2023-11-19T01:36:38;100046.03;;;1.77;100.00
47726;BME280;33483;48.294;16.388;2023-11-19T01:39:06;100040.56;;;1.77;100.00
47726;BME280;33483;48.294;16.388;2023-11-19T01:41:34;100044.50;;;1.76;100.00
47726;BME280;33483;48.294;16.388;2023-11-19T01:44:02;100035.72;;;1.81;100.00
47726;BME280;33483;48.294;16.388;2023-11-19T01:46:29;100040.69;;;1.92;100.00
47726;BME280;33483;48.294;16.388;2023-11-19T01:49:00;100025.53;;;1.91;100.00
47726;BME280;33483;48.294;16.388;2023-11-19T01:51:29;100027.34;;;1.94;100.00
47726;BME280;33483;48.294;16.388;2023-11-19T01:53:57;100023.41;;;1.95;100.00
47726;BME280;33483;48.294;16.388;2023-11-19T01:56:25;100021.72;;;1.97;100.00
47726;BME280;33483;48.294;16.388;2023-11-19T01:58:54;100017.00;;;1.98;100.00
47726;BME280;33483;48.294;16.388;2023-11-19T02:01:21;100016.84;;;2.01;100.00
47726;BME280;33483;48.294;16.388;2023-11-19T02:03:49;100014.28;;;1.98;100.00
47726;BME280;33483;48.294;16.388;2023-11-19T02:06:18;100009.72;;;2.04;100.00
47726;BME280;33483;48.294;16.388;2023-11-19T02:08:46;100007.72;;;2.04;100.00
47726;BME280;33483;48.294;16.388;2023-11-19T02:11:13;99990.88;;;2.06;100.00
47726;BME280;33483;48.294;16.388;2023-11-19T02:13:40;99988.59;;;2.13;100.00
47726;BME280;33483;48.294;16.388;2023-11-19T02:16:08;99981.28;;;2.19;100.00
47726;BME280;33483;48.294;16.388;2023-11-19T02:18:36;99968.19;;;2.23;100.00
47726;BME280;33483;48.294;16.388;2023-11-19T02:21:03;99967.00;;;2.24;100.00
47726;BME280;33483;48.294;16.388;2023-11-19T02:23:32;99956.06;;;2.24;100.00
47726;BME280;33483;48.294;16.388;2023-11-19T02:26:02;99952.72;;;2.20;100.00
47726;BME280;33483;48.294;16.388;2023-11-19T02:28:30;99939.50;;;2.28;100.00
47726;BME280;33483;48.294;16.388;2023-11-19T02:30:57;99941.47;;;2.27;100.00
47726;BME280;33483;48.294;16.388;2023-11-19T02:33:24;99942.34;;;2.34;100.00
47726;BME280;33483;48.294;16.388;2023-11-19T02:35:51;99929.13;;;2.32;100.00
47726;BME280;33483;48.294;16.388;2023-11-19T02:38:19;99942.78;;;2.32;100.00
47726;BME280;33483;48.294;16.388;2023-11-19T02:40:47;99940.53;;;2.30;100.00
47726;BME280;33483;48.294;16.388;2023-11-19T02:43:17;99933.56;;;2.29;100.00
47726;BME280;33483;48.294;16.388;2023-11-19T02:45:45;99934.03;;;2.28;100.00
47726;BME280;33483;48.294;16.388;2023-11-19T02:48:13;99924.75;;;2.25;100.00
47726;BME280;33483;48.294;16.388;2023-11-19T02:50:42;99925.03;;;2.37;100.00
47726;BME280;33483;48.294;16.388;2023-11-19T02:53:09;99917.28;;;2.35;100.00
47726;BME280;33483;48.294;16.388;2023-11-19T02:55:39;99911.19;;;2.40;100.00
47726;BME280;33483;48.294;16.388;2023-11-19T02:58:15;99906.75;;;2.43;100.00
47726;BME280;33483;48.294;16.388;2023-11-19T03:00:50;99904.59;;;2.47;100.00
47726;BME280;33483;48.294;16.388;2023-11-19T03:03:25;99902.34;;;2.45;100.00
47726;BME280;33483;48.294;16.388;2023-11-19T03:05:56;99913.56;;;2.47;100.00
47726;BME280;33483;48.294;16.388;2023-11-19T03:08:24;99894.56;;;2.53;100.00
47726;BME280;33483;48.294;16.388;2023-11-19T03:10:53;99884.66;;;2.55;100.00
47726;BME280;33483;48.294;16.388;2023-11-19T03:13:21;99877.22;;;2.56;100.00
47726;BME280;33483;48.294;16.388;2023-11-19T03:15:48;99883.72;;;2.58;100.00
47726;BME280;33483;48.294;16.388;2023-11-19T03:18:16;99864.75;;;2.55;100.00
47726;BME280;33483;48.294;16.388;2023-11-19T03:20:43;99861.72;;;2.53;100.00
47726;BME280;33483;48.294;16.388;2023-11-19T03:23:10;99853.63;;;2.58;100.00
47726;BME280;33483;48.294;16.388;2023-11-19T03:25:37;99865.03;;;2.57;100.00
47726;BME280;33483;48.294;16.388;2023-11-19T03:28:05;99857.13;;;2.59;100.00
47726;BME280;33483;48.294;16.388;2023-11-19T03:30:33;99853.91;;;2.60;100.00
47726;BME280;33483;48.294;16.388;2023-11-19T03:33:02;99860.16;;;2.61;100.00
47726;BME280;33483;48.294;16.388;2023-11-19T03:35:30;99860.63;;;2.59;100.00
47726;BME280;33483;48.294;16.388;2023-11-19T03:37:57;99860.44;;;2.63;100.00
47726;BME280;33483;48.294;16.388;2023-11-19T03:40:24;99851.94;;;2.61;100.00
47726;BME280;33483;48.294;16.388;2023-11-19T03:42:53;99855.63;;;2.58;100.00
47726;BME280;33483;48.294;16.388;2023-11-19T03:45:20;99851.34;;;2.57;100.00
47726;BME280;33483;48.294;16.388;2023-11-19T03:47:48;99845.59;;;2.55;100.00
47726;BME280;33483;48.294;16.388;2023-11-19T03:50:17;99840.41;;;2.57;100.00
47726;BME280;33483;48.294;16.388;2023-11-19T03:52:47;99842.50;;;2.62;100.00
47726;BME280;33483;48.294;16.388;2023-11-19T03:55:14;99828.38;;;2.63;100.00
47726;BME280;33483;48.294;16.388;2023-11-19T03:57:41;99820.91;;;2.64;100.00
47726;BME280;33483;48.294;16.388;2023-11-19T04:00:08;99822.63;;;2.61;100.00
47726;BME280;33483;48.294;16.388;2023-11-19T04:02:41;99810.44;;;2.62;100.00
47726;BME280;33483;48.294;16.388;2023-11-19T04:05:08;99799.78;;;2.64;100.00
47726;BME280;33483;48.294;16.388;2023-11-19T04:07:37;99804.50;;;2.64;100.00
47726;BME280;33483;48.294;16.388;2023-11-19T04:10:04;99797.06;;;2.64;100.00
47726;BME280;33483;48.294;16.388;2023-11-19T04:12:31;99794.91;;;2.68;100.00
47726;BME280;33483;48.294;16.388;2023-11-19T04:14:58;99790.16;;;2.69;100.00
47726;BME280;33483;48.294;16.388;2023-11-19T04:17:28;99779.03;;;2.72;100.00
47726;BME280;33483;48.294;16.388;2023-11-19T04:19:55;99770.94;;;2.78;100.00
47726;BME280;33483;48.294;16.388;2023-11-19T04:22:23;99777.66;;;2.77;100.00
47726;BME280;33483;48.294;16.388;2023-11-19T04:24:51;99775.56;;;2.72;100.00
47726;BME280;33483;48.294;16.388;2023-11-19T04:27:18;99785.09;;;2.76;100.00
47726;BME280;33483;48.294;16.388;2023-11-19T04:29:47;99787.06;;;2.76;100.00
47726;BME280;33483;48.294;16.388;2023-11-19T04:32:15;99781.59;;;2.76;100.00
47726;BME280;33483;48.294;16.388;2023-11-19T04:34:42;99767.06;;;2.70;100.00
47726;BME280;33483;48.294;16.388;2023-11-19T04:37:12;99775.56;;;2.72;100.00
47726;BME280;33483;48.294;16.388;2023-11-19T04:39:43;99776.03;;;2.70;100.00
47726;BME280;33483;48.294;16.388;2023-11-19T04:42:11;99770.09;;;2.72;100.00
47726;BME280;33483;48.294;16.388;2023-11-19T04:44:43;99774.63;;;2.75;100.00
47726;BME280;33483;48.294;16.388;2023-11-19T04:47:11;99770.09;;;2.72;100.00
47726;BME280;33483;48.294;16.388;2023-11-19T04:49:41;99769.50;;;2.68;100.00
47726;BME280;33483;48.294;16.388;2023-11-19T04:52:11;99762.25;;;2.65;100.00
47726;BME280;33483;48.294;16.388;2023-11-19T04:54:42;99751.00;;;2.63;100.00
47726;BME280;33483;48.294;16.388;2023-11-19T04:57:13;99744.59;;;2.66;100.00
47726;BME280;33483;48.294;16.388;2023-11-19T04:59:40;99738.66;;;2.67;100.00
47726;BME280;33483;48.294;16.388;2023-11-19T05:02:08;99731.69;;;2.66;100.00
47726;BME280;33483;48.294;16.388;2023-11-19T05:04:35;99723.56;;;2.72;100.00
47726;BME280;33483;48.294;16.388;2023-11-19T05:07:07;99726.03;;;2.70;100.00
47726;BME280;33483;48.294;16.388;2023-11-19T05:09:34;99722.53;;;2.69;100.00
47726;BME280;33483;48.294;16.388;2023-11-19T05:12:01;99726.50;;;2.68;100.00
47726;BME280;33483;48.294;16.388;2023-11-19T05:14:29;99716.28;;;2.69;100.00
47726;BME280;33483;48.294;16.388;2023-11-19T05:16:56;99723.19;;;2.64;100.00
47726;BME280;33483;48.294;16.388;2023-11-19T05:19:23;99714.22;;;2.64;100.00
47726;BME280;33483;48.294;16.388;2023-11-19T05:21:51;99707.53;;;2.65;100.00
47726;BME280;33483;48.294;16.388;2023-11-19T05:24:19;99710.81;;;2.69;100.00
47726;BME280;33483;48.294;16.388;2023-11-19T05:26:46;99710.25;;;2.65;100.00
47726;BME280;33483;48.294;16.388;2023-11-19T05:29:13;99704.78;;;2.65;100.00
47726;BME280;33483;48.294;16.388;2023-11-19T05:31:43;99703.25;;;2.64;100.00
47726;BME280;33483;48.294;16.388;2023-11-19T05:34:14;99699.31;;;2.65;100.00
47726;BME280;33483;48.294;16.388;2023-11-19T05:36:42;99700.06;;;2.65;100.00
47726;BME280;33483;48.294;16.388;2023-11-19T05:39:10;99686.28;;;2.60;100.00
47726;BME280;33483;48.294;16.388;2023-11-19T05:41:39;99683.81;;;2.62;100.00
47726;BME280;33483;48.294;16.388;2023-11-19T05:44:06;99687.03;;;2.60;100.00
47726;BME280;33483;48.294;16.388;2023-11-19T05:46:33;99672.25;;;2.67;100.00
47726;BME280;33483;48.294;16.388;2023-11-19T05:49:01;99666.78;;;2.67;100.00
47726;BME280;33483;48.294;16.388;2023-11-19T05:51:28;99666.47;;;2.65;100.00
47726;BME280;33483;48.294;16.388;2023-11-19T05:53:55;99669.59;;;2.58;100.00
47726;BME280;33483;48.294;16.388;2023-11-19T05:56:24;99661.56;;;2.54;100.00
47726;BME280;33483;48.294;16.388;2023-11-19T05:58:51;99654.75;;;2.50;100.00
47726;BME280;33483;48.294;16.388;2023-11-19T06:01:19;99650.69;;;2.45;100.00
47726;BME280;33483;48.294;16.388;2023-11-19T06:03:46;99656.53;;;2.38;100.00
47726;BME280;33483;48.294;16.388;2023-11-19T06:06:17;99660.22;;;2.35;100.00
47726;BME280;33483;48.294;16.388;2023-11-19T06:08:44;99663.13;;;2.32;100.00
47726;BME280;33483;48.294;16.388;2023-11-19T06:11:11;99663.78;;;2.26;100.00
47726;BME280;33483;48.294;16.388;2023-11-19T06:13:45;99664.22;;;2.25;100.00
47726;BME280;33483;48.294;16.388;2023-11-19T06:16:13;99676.69;;;2.26;100.00
47726;BME280;33483;48.294;16.388;2023-11-19T06:18:41;99667.91;;;2.22;100.00
47726;BME280;33483;48.294;16.388;2023-11-19T06:21:08;99668.38;;;2.20;100.00
47726;BME280;33483;48.294;16.388;2023-11-19T06:23:35;99660.66;;;2.19;100.00
47726;BME280;33483;48.294;16.388;2023-11-19T06:26:03;99665.63;;;2.20;100.00
47726;BME280;33483;48.294;16.388;2023-11-19T06:28:32;99678.06;;;2.21;100.00
47726;BME280;33483;48.294;16.388;2023-11-19T06:31:00;99661.22;;;2.23;100.00
47726;BME280;33483;48.294;16.388;2023-11-19T06:33:27;99670.00;;;2.27;100.00
47726;BME280;33483;48.294;16.388;2023-11-19T06:35:55;99665.56;;;2.29;100.00
47726;BME280;33483;48.294;16.388;2023-11-19T06:38:22;99656.03;;;2.25;100.00
47726;BME280;33483;48.294;16.388;2023-11-19T06:40:49;99659.06;;;2.27;100.00
47726;BME280;33483;48.294;16.388;2023-11-19T06:43:20;99662.84;;;2.29;100.00
47726;BME280;33483;48.294;16.388;2023-11-19T06:45:48;99655.84;;;2.28;100.00
47726;BME280;33483;48.294;16.388;2023-11-19T06:48:15;99654.47;;;2.33;100.00
47726;BME280;33483;48.294;16.388;2023-11-19T06:50:43;99650.78;;;2.36;100.00
47726;BME280;33483;48.294;16.388;2023-11-19T06:53:10;99643.03;;;2.35;100.00
47726;BME280;33483;48.294;16.388;2023-11-19T06:55:37;99639.84;;;2.36;100.00
47726;BME280;33483;48.294;16.388;2023-11-19T06:58:05;99623.44;;;2.36;100.00
47726;BME280;33483;48.294;16.388;2023-11-19T07:00:32;99622.66;;;2.36;100.00
47726;BME280;33483;48.294;16.388;2023-11-19T07:03:00;99628.91;;;2.36;100.00
47726;BME280;33483;48.294;16.388;2023-11-19T07:05:27;99633.53;;;2.45;100.00
47726;BME280;33483;48.294;16.388;2023-11-19T07:07:55;99634.09;;;2.49;100.00
47726;BME280;33483;48.294;16.388;2023-11-19T07:10:23;99617.69;;;2.49;100.00
47726;BME280;33483;48.294;16.388;2023-11-19T07:12:52;99603.06;;;2.52;100.00
47726;BME280;33483;48.294;16.388;2023-11-19T07:15:22;99606.09;;;2.54;100.00
47726;BME280;33483;48.294;16.388;2023-11-19T07:17:49;99595.25;;;2.59;100.00
47726;BME280;33483;48.294;16.388;2023-11-19T07:20:28;99588.53;;;2.60;100.00
47726;BME280;33483;48.294;16.388;2023-11-19T07:22:58;99583.06;;;2.60;100.00
47726;BME280;33483;48.294;16.388;2023-11-19T07:25:25;99582.88;;;2.64;100.00
47726;BME280;33483;48.294;16.388;2023-11-19T07:27:53;99587.34;;;2.61;100.00
47726;BME280;33483;48.294;16.388;2023-11-19T07:30:20;99578.75;;;2.68;100.00
47726;BME280;33483;48.294;16.388;2023-11-19T07:32:50;99574.00;;;2.69;100.00
47726;BME280;33483;48.294;16.388;2023-11-19T07:35:17;99582.22;;;2.69;100.00
47726;BME280;33483;48.294;16.388;2023-11-19T07:37:45;99577.31;;;2.73;100.00
47726;BME280;33483;48.294;16.388;2023-11-19T07:40:14;99586.81;;;2.77;100.00
47726;BME280;33483;48.294;16.388;2023-11-19T07:42:42;99587.69;;;2.83;100.00
47726;BME280;33483;48.294;16.388;2023-11-19T07:45:09;99585.72;;;2.84;100.00
47726;BME280;33483;48.294;16.388;2023-11-19T07:47:38;99571.16;;;2.92;100.00
47726;BME280;33483;48.294;16.388;2023-11-19T07:50:06;99585.13;;;2.94;100.00
47726;BME280;33483;48.294;16.388;2023-11-19T07:52:33;99577.41;;;2.93;100.00
47726;BME280;33483;48.294;16.388;2023-11-19T07:55:00;99567.84;;;3.03;100.00
47726;BME280;33483;48.294;16.388;2023-11-19T07:57:28;99564.63;;;3.04;100.00
47726;BME280;33483;48.294;16.388;2023-11-19T07:59:57;99566.97;;;3.11;100.00
47726;BME280;33483;48.294;16.388;2023-11-19T08:02:27;99563.56;;;3.16;100.00
47726;BME280;33483;48.294;16.388;2023-11-19T08:04:55;99563.75;;;3.13;100.00
47726;BME280;33483;48.294;16.388;2023-11-19T08:07:23;99569.19;;;3.27;100.00
47726;BME280;33483;48.294;16.388;2023-11-19T08:09:50;99557.88;;;3.40;100.00
47726;BME280;33483;48.294;16.388;2023-11-19T08:12:17;99570.56;;;3.58;100.00
47726;BME280;33483;48.294;16.388;2023-11-19T08:14:44;99569.56;;;3.75;100.00
47726;BME280;33483;48.294;16.388;2023-11-19T08:17:12;99575.44;;;3.88;100.00
47726;BME280;33483;48.294;16.388;2023-11-19T08:19:39;99567.81;;;3.98;100.00
47726;BME280;33483;48.294;16.388;2023-11-19T08:22:06;99571.94;;;4.08;100.00
47726;BME280;33483;48.294;16.388;2023-11-19T08:24:33;99569.94;;;4.08;100.00
47726;BME280;33483;48.294;16.388;2023-11-19T08:27:03;99570.00;;;4.14;100.00
47726;BME280;33483;48.294;16.388;2023-11-19T08:29:30;99566.19;;;4.06;100.00
47726;BME280;33483;48.294;16.388;2023-11-19T08:32:00;99565.63;;;4.02;100.00
47726;BME280;33483;48.294;16.388;2023-11-19T08:34:29;99568.22;;;4.11;100.00
47726;BME280;33483;48.294;16.388;2023-11-19T08:36:56;99558.00;;;4.11;100.00
47726;BME280;33483;48.294;16.388;2023-11-19T08:39:23;99568.84;;;4.00;100.00
47726;BME280;33483;48.294;16.388;2023-11-19T08:41:51;99559.81;;;3.94;100.00
47726;BME280;33483;48.294;16.388;2023-11-19T08:44:18;99556.81;;;3.92;100.00
47726;BME280;33483;48.294;16.388;2023-11-19T08:46:48;99556.81;;;3.92;100.00
47726;BME280;33483;48.294;16.388;2023-11-19T08:49:16;99549.03;;;3.91;100.00
47726;BME280;33483;48.294;16.388;2023-11-19T08:51:43;99556.31;;;3.94;100.00
47726;BME280;33483;48.294;16.388;2023-11-19T08:54:10;99563.09;;;3.98;100.00
47726;BME280;33483;48.294;16.388;2023-11-19T08:56:39;99563.66;;;4.02;100.00
47726;BME280;33483;48.294;16.388;2023-11-19T08:59:06;99564.72;;;4.10;100.00
47726;BME280;33483;48.294;16.388;2023-11-19T09:01:33;99577.25;;;4.17;100.00
47726;BME280;33483;48.294;16.388;2023-11-19T09:04:01;99579.75;;;4.15;100.00
47726;BME280;33483;48.294;16.388;2023-11-19T09:06:28;99582.53;;;4.20;100.00
47726;BME280;33483;48.294;16.388;2023-11-19T09:08:55;99566.88;;;4.26;100.00
47726;BME280;33483;48.294;16.388;2023-11-19T09:11:27;99559.34;;;4.47;100.00
47726;BME280;33483;48.294;16.388;2023-11-19T09:13:54;99547.53;;;4.67;100.00
47726;BME280;33483;48.294;16.388;2023-11-19T09:16:21;99546.28;;;4.68;100.00
47726;BME280;33483;48.294;16.388;2023-11-19T09:18:49;99537.16;;;4.82;100.00
47726;BME280;33483;48.294;16.388;2023-11-19T09:21:16;99538.47;;;4.86;100.00
47726;BME280;33483;48.294;16.388;2023-11-19T09:23:43;99533.78;;;4.98;100.00
47726;BME280;33483;48.294;16.388;2023-11-19T09:26:11;99523.84;;;5.06;100.00
47726;BME280;33483;48.294;16.388;2023-11-19T09:28:41;99525.69;;;4.78;100.00
47726;BME280;33483;48.294;16.388;2023-11-19T09:31:17;99510.25;;;4.86;100.00
47726;BME280;33483;48.294;16.388;2023-11-19T09:33:45;99514.53;;;4.92;100.00
47726;BME280;33483;48.294;16.388;2023-11-19T09:36:12;99528.97;;;4.87;100.00
47726;BME280;33483;48.294;16.388;2023-11-19T09:38:40;99523.75;;;4.89;100.00
47726;BME280;33483;48.294;16.388;2023-11-19T09:41:09;99521.50;;;4.88;100.00
47726;BME280;33483;48.294;16.388;2023-11-19T09:43:39;99517.06;;;4.96;100.00
47726;BME280;33483;48.294;16.388;2023-11-19T09:46:06;99511.66;;;5.12;100.00
47726;BME280;33483;48.294;16.388;2023-11-19T09:48:34;99511.47;;;5.27;100.00
47726;BME280;33483;48.294;16.388;2023-11-19T09:51:02;99512.00;;;5.31;100.00
47726;BME280;33483;48.294;16.388;2023-11-19T09:53:31;99507.06;;;5.46;100.00
47726;BME280;33483;48.294;16.388;2023-11-19T09:56:02;99496.91;;;5.57;100.00
47726;BME280;33483;48.294;16.388;2023-11-19T09:58:30;99508.72;;;5.80;100.00
47726;BME280;33483;48.294;16.388;2023-11-19T10:01:00;99495.25;;;5.88;100.00
47726;BME280;33483;48.294;16.388;2023-11-19T10:03:35;99500.56;;;6.08;100.00
47726;BME280;33483;48.294;16.388;2023-11-19T10:06:08;99510.31;;;6.14;100.00
47726;BME280;33483;48.294;16.388;2023-11-19T10:08:38;99499.84;;;6.29;100.00
47726;BME280;33483;48.294;16.388;2023-11-19T10:11:09;99483.06;;;6.38;100.00
47726;BME280;33483;48.294;16.388;2023-11-19T10:13:40;99493.59;;;6.34;100.00
47726;BME280;33483;48.294;16.388;2023-11-19T10:16:10;99488.56;;;6.44;100.00
47726;BME280;33483;48.294;16.388;2023-11-19T10:21:18;99478.81;;;6.43;100.00
47726;BME280;33483;48.294;16.388;2023-11-19T10:23:49;99481.84;;;6.45;100.00
47726;BME280;33483;48.294;16.388;2023-11-19T10:26:17;99468.31;;;6.36;100.00
47726;BME280;33483;48.294;16.388;2023-11-19T10:28:45;99460.56;;;6.29;100.00
47726;BME280;33483;48.294;16.388;2023-11-19T10:31:16;99467.06;;;6.15;100.00
47726;BME280;33483;48.294;16.388;2023-11-19T10:33:44;99468.53;;;6.16;100.00
47726;BME280;33483;48.294;16.388;2023-11-19T10:36:12;99456.56;;;6.19;100.00
47726;BME280;33483;48.294;16.388;2023-11-19T10:38:40;99459.53;;;6.10;100.00
47726;BME280;33483;48.294;16.388;2023-11-19T10:41:07;99459.53;;;6.04;100.00
47726;BME280;33483;48.294;16.388;2023-11-19T10:43:44;99453.50;;;5.95;100.00
47726;BME280;33483;48.294;16.388;2023-11-19T10:46:12;99446.00;;;5.90;100.00
47726;BME280;33483;48.294;16.388;2023-11-19T10:48:39;99432.94;;;5.79;100.00
47726;BME280;33483;48.294;16.388;2023-11-19T10:51:07;99430.00;;;5.83;100.00
47726;BME280;33483;48.294;16.388;2023-11-19T10:53:37;99422.50;;;5.83;100.00
47726;BME280;33483;48.294;16.388;2023-11-19T10:56:10;99420.50;;;5.84;100.00
47726;BME280;33483;48.294;16.388;2023-11-19T10:58:39;99415.72;;;5.79;100.00
47726;BME280;33483;48.294;16.388;2023-11-19T11:01:19;99429.69;;;5.81;100.00
47726;BME280;33483;48.294;16.388;2023-11-19T11:03:48;99417.25;;;5.85;100.00
47726;BME280;33483;48.294;16.388;2023-11-19T11:06:18;99406.78;;;5.89;100.00
47726;BME280;33483;48.294;16.388;2023-11-19T11:08:46;99408.78;;;5.94;100.00
47726;BME280;33483;48.294;16.388;2023-11-19T11:11:14;99399.25;;;5.95;100.00
47726;BME280;33483;48.294;16.388;2023-11-19T11:13:44;99389.03;;;6.01;100.00
47726;BME280;33483;48.294;16.388;2023-11-19T11:16:12;99398.78;;;6.13;100.00
47726;BME280;33483;48.294;16.388;2023-11-19T11:18:41;99395.78;;;6.22;100.00
47726;BME280;33483;48.294;16.388;2023-11-19T11:21:09;99397.50;;;6.20;100.00
47726;BME280;33483;48.294;16.388;2023-11-19T11:32:00;99406.78;;;6.17;100.00
47726;BME280;33483;48.294;16.388;2023-11-19T11:34:41;99403.53;;;6.24;100.00
47726;BME280;33483;48.294;16.388;2023-11-19T11:37:18;99410.50;;;6.14;100.00
47726;BME280;33483;48.294;16.388;2023-11-19T11:39:52;99396.78;;;6.08;100.00
47726;BME280;33483;48.294;16.388;2023-11-19T11:50:12;99391.50;;;6.21;100.00
47726;BME280;33483;48.294;16.388;2023-11-19T11:55:35;99389.50;;;6.16;100.00
47726;BME280;33483;48.294;16.388;2023-11-19T11:58:05;99391.50;;;6.10;100.00
47726;BME280;33483;48.294;16.388;2023-11-19T12:00:36;99401.00;;;6.04;100.00
47726;BME280;33483;48.294;16.388;2023-11-19T12:03:05;99401.00;;;5.98;100.00
47726;BME280;33483;48.294;16.388;2023-11-19T12:05:47;99392.75;;;6.09;100.00
47726;BME280;33483;48.294;16.388;2023-11-19T12:08:15;99383.75;;;6.20;100.00
47726;BME280;33483;48.294;16.388;2023-11-19T12:13:10;99380.25;;;6.14;100.00
47726;BME280;33483;48.294;16.388;2023-11-19T12:18:28;99372.47;;;6.40;100.00
47726;BME280;33483;48.294;16.388;2023-11-19T12:20:59;99370.19;;;6.60;100.00
47726;BME280;33483;48.294;16.388;2023-11-19T12:23:30;99362.72;;;6.44;100.00
47726;BME280;33483;48.294;16.388;2023-11-19T12:26:00;99362.19;;;6.57;100.00
47726;BME280;33483;48.294;16.388;2023-11-19T12:28:27;99362.13;;;6.73;100.00
47726;BME280;33483;48.294;16.388;2023-11-19T12:31:07;99356.09;;;6.80;100.00
47726;BME280;33483;48.294;16.388;2023-11-19T12:33:41;99361.09;;;6.88;100.00
47726;BME280;33483;48.294;16.388;2023-11-19T12:36:09;99347.34;;;6.76;100.00
47726;BME280;33483;48.294;16.388;2023-11-19T12:38:36;99353.88;;;6.73;100.00
47726;BME280;33483;48.294;16.388;2023-11-19T12:41:04;99349.66;;;6.61;100.00
47726;BME280;33483;48.294;16.388;2023-11-19T12:43:31;99350.94;;;6.55;100.00
47726;BME280;33483;48.294;16.388;2023-11-19T12:45:58;99347.16;;;6.47;100.00
47726;BME280;33483;48.294;16.388;2023-11-19T12:48:31;99348.44;;;6.40;100.00
47726;BME280;33483;48.294;16.388;2023-11-19T12:50:58;99347.72;;;6.34;100.00
47726;BME280;33483;48.294;16.388;2023-11-19T12:53:29;99344.72;;;6.21;100.00
47726;BME280;33483;48.294;16.388;2023-11-19T12:56:13;99341.97;;;6.16;100.00
47726;BME280;33483;48.294;16.388;2023-11-19T12:58:41;99338.75;;;6.12;100.00
47726;BME280;33483;48.294;16.388;2023-11-19T13:01:10;99343.00;;;5.85;100.00
47726;BME280;33483;48.294;16.388;2023-11-19T13:03:42;99342.00;;;5.83;100.00
47726;BME280;33483;48.294;16.388;2023-11-19T13:06:13;99337.72;;;5.82;100.00
47726;BME280;33483;48.294;16.388;2023-11-19T13:08:47;99330.97;;;5.77;100.00
47726;BME280;33483;48.294;16.388;2023-11-19T13:11:30;99335.97;;;5.73;100.00
47726;BME280;33483;48.294;16.388;2023-11-19T13:13:58;99330.72;;;5.75;100.00
47726;BME280;33483;48.294;16.388;2023-11-19T13:16:31;99340.25;;;5.85;100.00
47726;BME280;33483;48.294;16.388;2023-11-19T13:18:59;99328.75;;;5.92;100.00
47726;BME280;33483;48.294;16.388;2023-11-19T13:21:27;99322.25;;;5.95;100.00